createdAt,value
2019-01-14T00:00:37.502Z,98.95
2019-01-14T00:01:37.540Z,98.22
2019-01-14T00:02:38.354Z,98.74
2019-01-14T00:03:37.515Z,98.54
2019-01-14T00:04:37.462Z,98.80
2019-01-14T00:05:37.451Z,98.85
2019-01-14T00:06:37.439Z,98.74
2019-01-14T00:07:37.449Z,98.54
2019-01-14T00:08:37.424Z,98.49
2019-01-14T00:09:38.390Z,98.59
2019-01-14T00:10:37.401Z,98.32
2019-01-14T00:11:37.421Z,98.95
2019-01-14T00:12:37.470Z,98.91
2019-01-14T00:13:37.369Z,98.91
2019-01-14T00:14:37.350Z,98.38
2019-01-14T00:15:37.380Z,98.32
2019-01-14T00:16:37.340Z,98.91
2019-01-14T00:17:37.325Z,98.69
2019-01-14T00:18:37.311Z,99.32
2019-01-14T00:19:37.511Z,99.11
2019-01-14T00:20:37.288Z,98.91
2019-01-14T00:21:37.320Z,98.80
2019-01-14T00:22:37.271Z,99.11
2019-01-14T00:23:37.261Z,99.22
2019-01-14T00:24:37.241Z,99.64
2019-01-14T00:25:37.247Z,99.11
2019-01-14T00:26:37.274Z,99.01
2019-01-14T00:27:37.272Z,99.95
2019-01-14T00:28:37.199Z,99.43
2019-01-14T00:29:37.387Z,99.99
2019-01-14T00:30:37.201Z,99.99
2019-01-14T00:31:37.387Z,99.80
2019-01-14T00:32:37.159Z,99.22
2019-01-14T00:33:37.189Z,99.01
2019-01-14T00:34:37.137Z,99.01
2019-01-14T00:35:37.123Z,99.99
2019-01-14T00:36:37.122Z,98.43
2019-01-14T00:37:37.110Z,98.37
2019-01-14T00:38:37.097Z,98.47
2019-01-14T00:39:37.842Z,99.00
2019-01-14T00:40:37.263Z,99.04
2019-01-14T00:41:37.076Z,98.72
2019-01-14T00:42:37.052Z,98.72
2019-01-14T00:43:37.042Z,98.94
2019-01-14T00:44:37.021Z,98.62
2019-01-14T00:45:37.277Z,98.62
2019-01-14T00:46:37.006Z,98.72
2019-01-14T00:47:36.991Z,98.52
2019-01-14T00:48:36.982Z,98.83
2019-01-14T00:49:37.843Z,99.46
2019-01-14T00:50:36.967Z,98.83
2019-01-14T00:51:36.949Z,98.52
2019-01-14T00:52:36.941Z,98.25
2019-01-14T00:53:36.932Z,97.66
2019-01-14T00:54:37.151Z,98.50
2019-01-14T00:55:36.907Z,98.29
2019-01-14T00:56:36.902Z,98.39
2019-01-14T00:57:36.891Z,98.39
2019-01-14T00:58:36.877Z,98.29
2019-01-14T00:59:36.866Z,98.19
2019-01-14T01:00:36.897Z,98.39
2019-01-14T01:01:36.858Z,98.39
2019-01-14T01:02:36.882Z,98.92
2019-01-14T01:03:36.826Z,98.71
2019-01-14T01:04:36.810Z,98.61
2019-01-14T01:05:36.799Z,98.50
2019-01-14T01:06:36.792Z,98.50
2019-01-14T01:07:36.833Z,98.71
2019-01-14T01:08:36.814Z,98.71
2019-01-14T01:09:36.800Z,98.61
2019-01-14T01:10:36.748Z,99.03
2019-01-14T01:11:36.738Z,98.92
2019-01-14T01:12:36.729Z,99.03
2019-01-14T01:13:36.740Z,99.55
2019-01-14T01:14:36.702Z,99.18
2019-01-14T01:15:36.790Z,99.18
2019-01-14T01:16:36.688Z,98.82
2019-01-14T01:17:36.672Z,99.28
2019-01-14T01:18:36.664Z,99.18
2019-01-14T01:19:36.688Z,99.28
2019-01-14T01:20:36.640Z,99.44
2019-01-14T01:21:36.677Z,99.66
2019-01-14T01:22:36.658Z,99.99
2019-01-14T01:23:36.610Z,99.99
2019-01-14T01:24:36.602Z,99.97
2019-01-14T01:25:36.607Z,99.91
2019-01-14T01:26:36.581Z,99.99
2019-01-14T01:27:36.615Z,99.99
2019-01-14T01:28:36.557Z,99.99
2019-01-14T01:29:36.545Z,99.99
2019-01-14T01:30:36.541Z,99.99
2019-01-14T01:31:36.525Z,99.97
2019-01-14T01:32:36.520Z,99.99
2019-01-14T01:33:36.569Z,99.76
2019-01-14T01:34:36.497Z,99.99
2019-01-14T01:35:36.521Z,99.99
2019-01-14T01:36:36.473Z,99.34
2019-01-14T01:37:36.462Z,99.44
2019-01-14T01:38:36.451Z,99.44
2019-01-14T01:39:36.467Z,99.44
2019-01-14T01:40:36.432Z,99.24
2019-01-14T01:41:36.448Z,99.03
2019-01-14T01:42:36.449Z,99.03
2019-01-14T01:43:36.397Z,99.13
2019-01-14T01:44:36.387Z,98.61
2019-01-14T01:45:36.396Z,99.03
2019-01-14T01:46:36.367Z,98.61
2019-01-14T01:47:36.356Z,98.82
2019-01-14T01:48:36.388Z,98.39
2019-01-14T01:49:36.336Z,98.50
2019-01-14T01:50:36.322Z,98.39
2019-01-14T01:51:36.511Z,98.29
2019-01-14T01:52:36.305Z,98.46
2019-01-14T01:53:36.333Z,98.46
2019-01-14T01:54:36.280Z,98.50
2019-01-14T01:55:36.271Z,98.19
2019-01-14T01:56:36.262Z,98.29
2019-01-14T01:57:40.898Z,98.61
2019-01-14T01:58:36.252Z,97.93
2019-01-14T01:59:36.277Z,97.72
2019-01-14T02:00:36.254Z,97.83
2019-01-14T02:01:36.205Z,98.04
2019-01-14T02:02:36.203Z,98.04
2019-01-14T02:03:36.183Z,98.14
2019-01-14T02:04:36.208Z,97.83
2019-01-14T02:05:36.208Z,98.14
2019-01-14T02:06:39.258Z,97.93
2019-01-14T02:07:36.186Z,98.04
2019-01-14T02:08:36.130Z,97.62
2019-01-14T02:09:36.127Z,98.46
2019-01-14T02:10:36.112Z,98.35
2019-01-14T02:11:36.137Z,98.46
2019-01-14T02:12:36.142Z,98.67
2019-01-14T02:13:36.081Z,98.25
2019-01-14T02:14:36.071Z,98.25
2019-01-14T02:15:36.098Z,98.67
2019-01-14T02:16:36.053Z,98.35
2019-01-14T02:17:36.042Z,99.08
2019-01-14T02:18:36.037Z,98.98
2019-01-14T02:19:36.016Z,98.88
2019-01-14T02:20:36.021Z,98.72
2019-01-14T02:21:36.038Z,98.83
2019-01-14T02:22:36.002Z,98.41
2019-01-14T02:23:35.981Z,98.62
2019-01-14T02:24:35.958Z,98.62
2019-01-14T02:25:36.000Z,98.62
2019-01-14T02:26:35.943Z,98.72
2019-01-14T02:27:35.964Z,98.41
2019-01-14T02:28:35.919Z,98.94
2019-01-14T02:29:35.911Z,99.46
2019-01-14T02:30:35.912Z,99.46
2019-01-14T02:31:35.942Z,99.35
2019-01-14T02:32:35.885Z,99.15
2019-01-14T02:33:36.045Z,98.83
2019-01-14T02:34:35.869Z,98.83
2019-01-14T02:35:35.846Z,98.83
2019-01-14T02:36:35.840Z,98.98
2019-01-14T02:37:35.872Z,98.77
2019-01-14T02:38:35.811Z,99.40
2019-01-14T02:39:35.809Z,99.19
2019-01-14T02:40:35.839Z,99.19
2019-01-14T02:41:35.782Z,99.30
2019-01-14T02:42:35.769Z,99.40
2019-01-14T02:43:35.860Z,99.40
2019-01-14T02:44:35.758Z,98.88
2019-01-14T02:45:35.783Z,99.08
2019-01-14T02:46:35.751Z,99.30
2019-01-14T02:47:35.719Z,98.88
2019-01-14T02:48:35.716Z,99.40
2019-01-14T02:49:35.707Z,99.40
2019-01-14T02:50:35.763Z,98.88
2019-01-14T02:51:35.854Z,98.67
2019-01-14T02:52:39.777Z,99.30
2019-01-14T02:53:35.656Z,99.19
2019-01-14T02:54:35.641Z,99.19
2019-01-14T02:55:35.668Z,98.98
2019-01-14T02:56:35.655Z,99.19
2019-01-14T02:57:35.607Z,99.19
2019-01-14T02:58:35.593Z,99.30
2019-01-14T02:59:35.584Z,99.19
2019-01-14T03:00:35.579Z,99.51
2019-01-14T03:01:35.622Z,99.40
2019-01-14T03:02:35.554Z,99.71
2019-01-14T03:03:35.543Z,99.93
2019-01-14T03:04:35.529Z,99.93
2019-01-14T03:05:35.557Z,99.93
2019-01-14T03:06:35.520Z,99.99
2019-01-14T03:07:35.523Z,99.61
2019-01-14T03:08:35.500Z,99.51
2019-01-14T03:09:35.495Z,99.93
2019-01-14T03:10:35.508Z,99.61
2019-01-14T03:11:35.463Z,99.93
2019-01-14T03:12:35.447Z,99.99
2019-01-14T03:13:35.454Z,99.99
2019-01-14T03:14:35.431Z,99.99
2019-01-14T03:15:35.418Z,99.99
2019-01-14T03:16:35.459Z,99.99
2019-01-14T03:17:35.392Z,99.82
2019-01-14T03:18:35.390Z,99.99
2019-01-14T03:19:35.375Z,99.93
2019-01-14T03:20:35.364Z,99.82
2019-01-14T03:21:35.399Z,99.93
2019-01-14T03:22:35.358Z,99.51
2019-01-14T03:23:35.332Z,99.61
2019-01-14T03:24:35.324Z,99.61
2019-01-14T03:25:35.324Z,99.71
2019-01-14T03:26:35.299Z,99.99
2019-01-14T03:27:35.333Z,99.99
2019-01-14T03:28:35.283Z,99.93
2019-01-14T03:29:35.295Z,99.71
2019-01-14T03:30:35.260Z,99.93
2019-01-14T03:31:35.253Z,99.71
2019-01-14T03:32:35.234Z,99.71
2019-01-14T03:33:35.296Z,99.82
2019-01-14T03:34:35.214Z,99.93
2019-01-14T03:35:35.218Z,99.61
2019-01-14T03:36:35.215Z,99.71
2019-01-14T03:37:35.176Z,99.87
2019-01-14T03:38:35.176Z,99.97
2019-01-14T03:39:35.200Z,99.97
2019-01-14T03:40:35.158Z,99.99
2019-01-14T03:41:35.139Z,99.99
2019-01-14T03:42:35.162Z,99.99
2019-01-14T03:43:35.157Z,99.99
2019-01-14T03:44:35.126Z,99.99
2019-01-14T03:45:35.101Z,99.99
2019-01-14T03:46:35.088Z,99.99
2019-01-14T03:47:35.077Z,99.99
2019-01-14T03:48:35.064Z,99.99
2019-01-14T03:49:35.096Z,99.99
2019-01-14T03:50:35.049Z,99.99
2019-01-14T03:51:35.058Z,99.99
2019-01-14T03:52:35.024Z,99.99
2019-01-14T03:53:35.060Z,99.99
2019-01-14T03:54:35.003Z,99.99
2019-01-14T03:55:34.987Z,99.99
2019-01-14T03:56:34.984Z,99.99
2019-01-14T03:57:34.972Z,99.99
2019-01-14T03:58:34.986Z,99.99
2019-01-14T03:59:34.985Z,99.99
2019-01-14T04:00:34.945Z,99.99
2019-01-14T04:01:34.924Z,99.99
2019-01-14T04:02:34.934Z,99.99
2019-01-14T04:03:34.908Z,99.99
2019-01-14T04:04:34.913Z,99.99
2019-01-14T04:05:34.918Z,99.99
2019-01-14T04:06:34.893Z,99.99
2019-01-14T04:07:34.864Z,99.99
2019-01-14T04:08:34.854Z,99.99
2019-01-14T04:09:34.853Z,99.99
2019-01-14T04:10:34.872Z,99.99
2019-01-14T04:11:34.832Z,99.99
2019-01-14T04:12:34.811Z,99.99
2019-01-14T04:13:34.800Z,99.99
2019-01-14T04:14:34.788Z,99.99
2019-01-14T04:15:34.802Z,99.99
2019-01-14T04:16:34.808Z,99.99
2019-01-14T04:17:34.778Z,99.99
2019-01-14T04:18:34.750Z,99.99
2019-01-14T04:19:34.744Z,99.99
2019-01-14T04:20:34.729Z,99.99
2019-01-14T04:21:34.734Z,99.99
2019-01-14T04:22:34.753Z,99.99
2019-01-14T04:23:34.737Z,99.99
2019-01-14T04:24:34.691Z,99.98
2019-01-14T04:25:34.668Z,99.99
2019-01-14T04:26:34.666Z,99.99
2019-01-14T04:27:34.650Z,99.99
2019-01-14T04:28:34.663Z,99.99
2019-01-14T04:29:34.662Z,99.99
2019-01-14T04:30:34.618Z,99.99
2019-01-14T04:31:34.610Z,99.99
2019-01-14T04:32:34.624Z,99.99
2019-01-14T04:33:34.628Z,99.99
2019-01-14T04:34:34.573Z,99.99
2019-01-14T04:35:34.591Z,99.99
2019-01-14T04:36:34.553Z,99.99
2019-01-14T04:37:34.556Z,99.99
2019-01-14T04:38:34.581Z,99.98
2019-01-14T04:39:34.550Z,99.99
2019-01-14T04:40:34.554Z,99.99
2019-01-14T04:41:34.501Z,99.99
2019-01-14T04:42:34.528Z,99.57
2019-01-14T04:43:34.510Z,99.98
2019-01-14T04:44:34.482Z,99.77
2019-01-14T04:45:34.480Z,99.98
2019-01-14T04:46:34.826Z,99.88
2019-01-14T04:47:34.449Z,99.99
2019-01-14T04:48:34.481Z,99.93
2019-01-14T04:49:34.444Z,99.93
2019-01-14T04:50:34.463Z,99.99
2019-01-14T04:51:34.403Z,99.99
2019-01-14T04:52:34.387Z,99.93
2019-01-14T04:53:34.367Z,99.93
2019-01-14T04:54:34.381Z,99.61
2019-01-14T04:55:34.399Z,99.82
2019-01-14T04:56:34.357Z,99.82
2019-01-14T04:57:34.367Z,99.93
2019-01-14T04:58:34.367Z,99.99
2019-01-14T04:59:34.311Z,99.99
2019-01-14T05:00:34.307Z,99.99
2019-01-14T05:01:34.312Z,99.99
2019-01-14T05:02:34.297Z,99.99
2019-01-14T05:03:34.291Z,99.99
2019-01-14T05:04:34.433Z,99.99
2019-01-14T05:05:34.261Z,99.99
2019-01-14T05:06:34.266Z,99.99
2019-01-14T05:07:34.311Z,99.99
2019-01-14T05:08:34.228Z,99.99
2019-01-14T05:09:34.262Z,99.93
2019-01-14T05:10:34.259Z,99.99
2019-01-14T05:11:34.218Z,98.67
2019-01-14T05:12:34.179Z,98.98
2019-01-14T05:13:34.189Z,99.19
2019-01-14T05:14:34.149Z,99.40
2019-01-14T05:15:34.207Z,99.19
2019-01-14T05:16:34.145Z,98.88
2019-01-14T05:17:34.116Z,98.72
2019-01-14T05:18:34.116Z,98.14
2019-01-14T05:19:34.125Z,97.52
2019-01-14T05:20:34.092Z,96.73
2019-01-14T05:21:34.158Z,96.21
2019-01-14T05:22:34.100Z,96.21
2019-01-14T05:23:34.056Z,94.74
2019-01-14T05:24:34.044Z,94.01
2019-01-14T05:25:34.054Z,93.38
2019-01-14T05:26:34.933Z,94.26
2019-01-14T05:27:34.019Z,94.89
2019-01-14T05:28:34.005Z,93.11
2019-01-14T05:29:33.998Z,92.38
2019-01-14T05:30:34.001Z,92.38
2019-01-14T05:31:33.964Z,92.48
2019-01-14T05:32:34.010Z,89.86
2019-01-14T05:33:33.949Z,88.87
2019-01-14T05:34:33.937Z,88.18
2019-01-14T05:35:33.951Z,89.97
2019-01-14T05:36:33.923Z,88.92
2019-01-14T05:37:37.783Z,88.71
2019-01-14T05:38:33.941Z,88.07
2019-01-14T05:39:33.933Z,88.18
2019-01-14T05:40:33.879Z,88.71
2019-01-14T05:41:33.864Z,90.07
2019-01-14T05:42:34.001Z,89.86
2019-01-14T05:43:33.841Z,90.59
2019-01-14T05:44:33.875Z,91.22
2019-01-14T05:45:33.823Z,89.12
2019-01-14T05:46:33.814Z,85.56
2019-01-14T05:47:33.855Z,86.29
2019-01-14T05:48:33.788Z,88.18
2019-01-14T05:49:34.323Z,84.30
2019-01-14T05:50:33.814Z,84.30
2019-01-14T05:51:35.300Z,85.14
2019-01-14T05:52:33.814Z,86.08
2019-01-14T05:53:34.285Z,87.03
2019-01-14T05:54:33.737Z,87.24
2019-01-14T05:55:33.735Z,87.91
2019-01-14T05:56:33.760Z,88.96
2019-01-14T05:57:33.694Z,88.85
2019-01-14T05:58:33.684Z,88.37
2019-01-14T05:59:33.686Z,87.70
2019-01-14T06:00:33.680Z,86.44
2019-01-14T06:01:36.282Z,86.65
2019-01-14T06:02:33.683Z,86.23
2019-01-14T06:03:33.627Z,84.93
2019-01-14T06:04:33.622Z,84.09
2019-01-14T06:05:33.619Z,85.25
2019-01-14T06:06:33.599Z,86.61
2019-01-14T06:07:33.586Z,86.65
2019-01-14T06:08:33.625Z,88.01
2019-01-14T06:09:33.626Z,87.80
2019-01-14T06:10:33.608Z,87.49
2019-01-14T06:11:33.567Z,87.32
2019-01-14T06:12:33.533Z,88.43
2019-01-14T06:13:33.575Z,88.47
2019-01-14T06:14:33.569Z,86.96
2019-01-14T06:15:33.509Z,87.63
2019-01-14T06:16:33.517Z,88.57
2019-01-14T06:17:33.517Z,89.10
2019-01-14T06:18:33.634Z,89.10
2019-01-14T06:19:33.470Z,88.68
2019-01-14T06:20:33.444Z,87.00
2019-01-14T06:21:33.443Z,87.32
2019-01-14T06:22:33.459Z,87.38
2019-01-14T06:23:33.545Z,87.32
2019-01-14T06:24:33.412Z,87.11
2019-01-14T06:25:33.417Z,87.49
2019-01-14T06:26:33.411Z,87.95
2019-01-14T06:27:33.408Z,87.95
2019-01-14T06:28:33.399Z,86.37
2019-01-14T06:29:33.354Z,85.39
2019-01-14T06:30:33.328Z,82.66
2019-01-14T06:31:33.325Z,83.18
2019-01-14T06:32:33.321Z,84.97
2019-01-14T06:33:33.304Z,83.92
2019-01-14T06:34:33.339Z,82.66
2019-01-14T06:35:33.295Z,82.87
2019-01-14T06:36:33.289Z,84.55
2019-01-14T06:37:33.338Z,84.59
2019-01-14T06:38:33.446Z,85.32
2019-01-14T06:39:33.234Z,83.18
2019-01-14T06:40:33.272Z,82.17
2019-01-14T06:41:33.209Z,80.57
2019-01-14T06:42:33.198Z,81.40
2019-01-14T06:43:33.202Z,82.98
2019-01-14T06:44:33.178Z,79.41
2019-01-14T06:45:33.171Z,78.99
2019-01-14T06:46:33.196Z,77.73
2019-01-14T06:47:33.148Z,75.29
2019-01-14T06:48:33.144Z,74.55
2019-01-14T06:49:33.136Z,74.55
2019-01-14T06:50:33.120Z,73.71
2019-01-14T06:51:33.119Z,71.89
2019-01-14T06:52:33.141Z,73.05
2019-01-14T06:53:33.244Z,71.89
2019-01-14T06:54:33.075Z,73.71
2019-01-14T06:55:33.063Z,72.45
2019-01-14T06:56:33.048Z,69.17
2019-01-14T06:57:33.060Z,70.53
2019-01-14T06:58:33.076Z,71.26
2019-01-14T06:59:33.015Z,71.26
2019-01-14T07:00:33.005Z,70.01
2019-01-14T07:01:32.992Z,69.90
2019-01-14T07:02:32.986Z,69.17
2019-01-14T07:03:32.979Z,69.07
2019-01-14T07:04:33.015Z,69.48
2019-01-14T07:05:32.954Z,69.48
2019-01-14T07:06:32.940Z,70.64
2019-01-14T07:07:32.931Z,76.23
2019-01-14T07:08:32.930Z,80.77
2019-01-14T07:09:32.912Z,76.57
2019-01-14T07:10:32.945Z,70.67
2019-01-14T07:11:32.892Z,69.83
2019-01-14T07:12:32.884Z,71.16
2019-01-14T07:13:32.873Z,74.76
2019-01-14T07:14:32.886Z,79.30
2019-01-14T07:15:32.858Z,80.46
2019-01-14T07:16:32.880Z,85.22
2019-01-14T07:17:32.836Z,90.40
2019-01-14T07:18:32.821Z,92.76
2019-01-14T07:19:33.038Z,92.96
2019-01-14T07:20:32.797Z,94.96
2019-01-14T07:21:32.782Z,95.28
2019-01-14T07:22:32.806Z,96.05
2019-01-14T07:23:32.765Z,96.16
2019-01-14T07:24:32.748Z,96.79
2019-01-14T07:25:32.960Z,96.79
2019-01-14T07:26:32.727Z,96.05
2019-01-14T07:27:32.715Z,96.37
2019-01-14T07:28:32.750Z,96.58
2019-01-14T07:29:32.694Z,97.31
2019-01-14T07:30:32.683Z,96.79
2019-01-14T07:31:32.690Z,96.47
2019-01-14T07:32:32.884Z,96.47
2019-01-14T07:33:32.692Z,96.79
2019-01-14T07:34:32.635Z,97.11
2019-01-14T07:35:32.629Z,97.31
2019-01-14T07:36:32.630Z,97.42
2019-01-14T07:37:32.609Z,97.74
2019-01-14T07:38:32.615Z,97.84
2019-01-14T07:39:32.620Z,98.05
2019-01-14T07:40:32.616Z,97.74
2019-01-14T10:23:54.434Z,94.45
2019-01-14T10:24:54.326Z,95.08
2019-01-14T10:25:54.325Z,93.82
2019-01-14T10:26:54.332Z,92.67
2019-01-14T10:27:54.274Z,92.12
2019-01-14T10:28:54.256Z,92.92
2019-01-14T10:29:54.266Z,94.08
2019-01-14T10:30:54.271Z,94.33
2019-01-14T10:31:54.226Z,94.43
2019-01-14T10:32:54.212Z,95.34
2019-01-14T10:33:54.207Z,95.23
2019-01-14T10:34:54.206Z,95.02
2019-01-14T10:35:54.183Z,94.85
2019-01-14T10:36:54.174Z,95.06
2019-01-14T10:37:54.159Z,95.28
2019-01-14T10:38:54.146Z,95.59
2019-01-14T10:39:54.138Z,95.59
2019-01-14T10:40:54.146Z,95.23
2019-01-14T10:41:54.160Z,95.02
2019-01-14T10:42:54.105Z,94.12
2019-01-14T10:43:54.096Z,94.43
2019-01-14T10:44:54.080Z,94.12
2019-01-14T10:45:54.068Z,94.35
2019-01-14T10:46:54.090Z,93.68
2019-01-14T10:47:54.062Z,92.83
2019-01-14T10:48:54.044Z,92.21
2019-01-14T10:49:54.119Z,90.17
2019-01-14T10:50:54.018Z,89.86
2019-01-14T10:51:54.064Z,90.84
2019-01-14T10:52:54.007Z,88.71
2019-01-14T10:53:54.018Z,84.51
2019-01-14T10:54:53.986Z,85.14
2019-01-14T10:55:53.964Z,88.81
2019-01-14T10:56:53.955Z,89.82
2019-01-14T10:57:53.991Z,90.23
2019-01-14T10:58:54.957Z,89.78
2019-01-14T10:59:53.951Z,88.94
2019-01-14T11:00:53.916Z,89.98
2019-01-14T11:01:53.899Z,88.73
2019-01-14T11:02:53.888Z,89.82
2019-01-14T11:03:53.930Z,88.71
2019-01-14T11:04:53.868Z,88.04
2019-01-14T11:05:53.883Z,84.05
2019-01-14T11:06:53.846Z,81.64
2019-01-14T11:07:53.836Z,82.69
2019-01-14T11:08:58.834Z,82.86
2019-01-14T11:09:54.817Z,83.14
2019-01-14T11:10:53.804Z,80.07
2019-01-14T11:11:53.797Z,79.82
2019-01-14T11:12:53.813Z,78.77
2019-01-14T11:13:53.776Z,75.84
2019-01-14T11:14:53.799Z,77.06
2019-01-14T11:15:53.753Z,67.97
2019-01-14T11:16:53.746Z,60.38
2019-01-14T11:17:53.730Z,62.58
2019-01-14T11:18:53.766Z,59.97
2019-01-14T11:19:53.710Z,61.32
2019-01-14T11:20:53.705Z,77.06
2019-01-14T11:21:53.725Z,81.60
2019-01-14T11:22:53.680Z,84.36
2019-01-14T11:23:53.691Z,86.57
2019-01-14T11:24:53.655Z,88.49
2019-01-14T11:25:53.649Z,90.64
2019-01-14T11:26:53.677Z,91.27
2019-01-14T11:27:53.626Z,91.47
2019-01-14T11:28:53.617Z,91.68
2019-01-14T11:29:53.621Z,91.68
2019-01-14T11:30:53.595Z,91.47
2019-01-14T11:31:53.581Z,91.22
2019-01-14T11:32:53.607Z,89.97
2019-01-14T11:33:53.562Z,88.56
2019-01-14T11:34:53.549Z,81.68
2019-01-14T11:35:53.570Z,79.75
2019-01-14T11:36:53.533Z,82.90
2019-01-14T11:37:53.534Z,78.85
2019-01-14T11:38:53.512Z,83.78
2019-01-14T11:39:53.492Z,88.96
2019-01-14T11:40:53.485Z,90.22
2019-01-14T11:41:53.513Z,91.47
2019-01-14T11:42:53.466Z,91.27
2019-01-14T11:43:53.470Z,91.83
2019-01-14T11:44:53.447Z,92.57
2019-01-14T11:45:53.430Z,92.46
2019-01-14T11:46:53.457Z,92.92
2019-01-14T11:47:53.410Z,93.19
2019-01-14T11:48:53.403Z,93.19
2019-01-14T11:49:53.406Z,91.97
2019-01-14T11:50:53.382Z,91.41
2019-01-14T11:51:53.369Z,91.62
2019-01-14T11:52:53.389Z,91.45
2019-01-14T11:53:53.344Z,92.54
2019-01-14T11:54:53.333Z,93.38
2019-01-14T11:55:53.322Z,92.96
2019-01-14T11:56:53.341Z,92.96
2019-01-14T11:57:53.339Z,92.86
2019-01-14T11:58:53.293Z,92.29
2019-01-14T11:59:53.284Z,92.50
2019-01-14T12:00:53.276Z,92.08
2019-01-14T12:01:53.262Z,91.66
2019-01-14T12:02:53.283Z,87.67
2019-01-14T12:03:53.238Z,87.84
2019-01-14T12:04:53.227Z,88.37
2019-01-14T12:05:53.222Z,88.26
2019-01-14T12:06:53.210Z,89.10
2019-01-14T12:07:53.241Z,88.26
2019-01-14T12:08:53.208Z,89.21
2019-01-14T12:09:53.176Z,89.21
2019-01-14T12:10:53.165Z,87.99
2019-01-14T12:11:53.155Z,88.20
2019-01-14T12:12:53.202Z,86.77
2019-01-14T12:13:53.134Z,87.40
2019-01-14T12:14:53.124Z,88.30
2019-01-14T12:15:53.141Z,88.47
2019-01-14T12:16:53.102Z,87.11
2019-01-14T12:17:53.089Z,87.00
2019-01-14T12:18:53.116Z,87.00
2019-01-14T12:19:54.090Z,86.06
2019-01-14T12:20:53.103Z,85.05
2019-01-14T12:21:53.072Z,84.48
2019-01-14T12:22:53.038Z,84.91
2019-01-14T12:23:53.026Z,84.48
2019-01-14T12:24:53.021Z,86.79
2019-01-14T12:25:53.004Z,87.42
2019-01-14T12:26:54.177Z,87.46
2019-01-14T12:27:53.000Z,87.42
2019-01-14T12:28:52.975Z,86.79
2019-01-14T12:29:52.964Z,85.64
2019-01-14T12:30:52.966Z,85.11
2019-01-14T12:31:52.977Z,84.91
2019-01-14T12:32:52.928Z,84.48
2019-01-14T12:33:52.927Z,84.10
2019-01-14T12:34:52.912Z,84.80
2019-01-14T12:35:52.921Z,84.52
2019-01-14T12:36:52.893Z,85.15
2019-01-14T12:37:52.879Z,85.32
2019-01-14T12:38:52.867Z,85.22
2019-01-14T12:39:52.856Z,85.32
2019-01-14T12:40:52.843Z,85.89
2019-01-14T12:41:52.855Z,83.68
2019-01-14T12:42:52.835Z,82.10
2019-01-14T12:43:52.817Z,83.26
2019-01-14T12:44:52.803Z,83.37
2019-01-14T12:45:52.793Z,83.96
2019-01-14T12:46:52.782Z,85.78
2019-01-14T12:47:52.800Z,84.84
2019-01-14T12:48:52.770Z,85.74
2019-01-14T12:49:52.788Z,82.95
2019-01-14T12:50:52.738Z,82.28
2019-01-14T12:51:52.727Z,81.96
2019-01-14T12:52:52.721Z,83.05
2019-01-14T12:53:52.766Z,88.87
2019-01-14T12:54:52.695Z,90.97
2019-01-14T12:55:52.684Z,91.60
2019-01-14T12:56:52.676Z,91.53
2019-01-14T12:57:52.662Z,91.49
2019-01-14T12:58:52.684Z,90.02
2019-01-14T12:59:52.689Z,88.66
2019-01-14T13:00:52.633Z,85.93
2019-01-14T13:01:52.650Z,87.40
2019-01-14T13:02:52.614Z,89.18
2019-01-14T13:03:52.602Z,88.45
2019-01-14T13:04:52.612Z,88.02
2019-01-14T13:05:52.612Z,87.82
2019-01-14T13:06:52.569Z,89.32
2019-01-14T13:07:52.563Z,91.74
2019-01-14T13:08:52.581Z,92.80
2019-01-14T13:09:52.565Z,93.43
2019-01-14T13:10:52.527Z,93.43
2019-01-14T13:11:52.512Z,93.01
2019-01-14T13:12:52.506Z,92.90
2019-01-14T13:13:52.536Z,92.48
2019-01-14T13:14:52.481Z,91.53
2019-01-14T13:15:52.497Z,91.85
2019-01-14T13:16:52.468Z,92.58
2019-01-14T13:17:52.501Z,93.37
2019-01-14T13:18:52.441Z,95.04
2019-01-14T13:19:52.476Z,95.26
2019-01-14T13:20:52.420Z,95.26
2019-01-14T13:21:52.430Z,96.31
2019-01-14T13:22:52.398Z,96.41
2019-01-14T13:23:52.394Z,96.45
2019-01-14T13:24:52.412Z,96.25
2019-01-14T13:25:52.368Z,96.98
2019-01-14T13:26:52.356Z,96.35
2019-01-14T13:27:52.364Z,96.41
2019-01-14T13:28:52.332Z,96.73
2019-01-14T13:29:52.320Z,96.67
2019-01-14T13:30:52.351Z,96.73
2019-01-14T13:31:52.298Z,96.83
2019-01-14T13:32:52.294Z,96.83
2019-01-14T13:33:52.307Z,96.20
2019-01-14T13:34:52.267Z,97.05
2019-01-14T13:35:52.257Z,96.73
2019-01-14T13:36:52.280Z,96.83
2019-01-14T13:37:52.235Z,97.25
2019-01-14T13:38:52.224Z,97.51
2019-01-14T13:39:52.692Z,97.41
2019-01-14T13:40:52.210Z,97.36
2019-01-14T13:41:52.227Z,97.36
2019-01-14T13:42:52.180Z,97.41
2019-01-14T13:43:52.171Z,97.25
2019-01-14T13:44:52.162Z,97.30
2019-01-14T13:45:52.515Z,98.24
2019-01-14T13:46:52.173Z,97.61
2019-01-14T13:47:52.133Z,97.41
2019-01-14T13:48:52.160Z,96.88
2019-01-14T13:49:52.117Z,96.20
2019-01-14T13:50:52.097Z,96.20
2019-01-14T13:51:52.112Z,95.57
2019-01-14T13:52:52.075Z,96.41
2019-01-14T13:53:52.063Z,96.20
2019-01-14T13:54:52.091Z,96.31
2019-01-14T13:55:59.284Z,96.20
2019-01-14T13:56:53.031Z,95.15
2019-01-14T13:57:52.436Z,95.26
2019-01-14T13:58:52.008Z,94.42
2019-01-14T13:59:52.001Z,93.57
2019-01-14T14:00:52.062Z,93.89
2019-01-14T14:01:51.976Z,92.84
2019-01-14T14:02:51.970Z,93.05
2019-01-14T14:03:51.976Z,93.26
2019-01-14T14:04:51.982Z,93.05
2019-01-14T14:05:51.931Z,93.57
2019-01-14T14:06:51.926Z,95.09
2019-01-14T14:07:51.911Z,96.25
2019-01-14T14:08:51.900Z,96.25
2019-01-14T14:09:51.907Z,96.81
2019-01-14T14:10:51.915Z,97.13
2019-01-14T14:11:51.879Z,97.41
2019-01-14T14:12:51.856Z,97.09
2019-01-14T14:13:51.844Z,97.51
2019-01-14T14:14:51.834Z,97.45
2019-01-14T14:15:51.846Z,97.66
2019-01-14T14:16:51.855Z,97.87
2019-01-14T14:17:51.805Z,98.29
2019-01-14T14:18:51.797Z,97.87
2019-01-14T14:19:51.785Z,97.66
2019-01-14T14:20:51.812Z,97.60
2019-01-14T14:21:51.774Z,96.50
2019-01-14T14:22:51.753Z,95.45
2019-01-14T14:23:51.742Z,96.50
2019-01-14T14:24:51.726Z,96.03
2019-01-14T14:25:51.715Z,96.71
2019-01-14T14:26:51.753Z,96.19
2019-01-14T14:27:51.715Z,95.97
2019-01-14T14:28:51.694Z,96.50
2019-01-14T14:29:51.669Z,96.61
2019-01-14T14:30:51.663Z,96.81
2019-01-14T14:31:51.653Z,97.03
2019-01-14T14:32:51.685Z,97.34
2019-01-14T14:33:51.629Z,96.81
2019-01-14T14:34:51.643Z,96.77
2019-01-14T14:35:51.608Z,97.09
2019-01-14T14:36:51.592Z,97.13
2019-01-14T14:37:51.584Z,97.03
2019-01-14T14:38:51.630Z,97.03
2019-01-14T14:39:51.560Z,97.71
2019-01-14T14:40:51.548Z,98.08
2019-01-14T14:41:51.544Z,97.71
2019-01-14T14:42:51.544Z,98.02
2019-01-14T14:43:51.518Z,97.66
2019-01-14T14:44:51.547Z,97.76
2019-01-14T14:45:51.496Z,97.87
2019-01-14T14:46:51.484Z,97.76
2019-01-14T14:47:51.504Z,97.76
2019-01-14T14:48:51.498Z,97.76
2019-01-14T14:49:51.450Z,97.97
2019-01-14T14:50:51.440Z,97.55
2019-01-14T14:51:51.430Z,96.92
2019-01-14T14:52:51.421Z,95.20
2019-01-14T14:53:51.430Z,95.13
2019-01-14T14:54:51.430Z,94.50
2019-01-14T14:55:51.385Z,94.71
2019-01-14T14:56:51.374Z,94.82
2019-01-14T14:57:51.402Z,94.40
2019-01-14T14:58:51.355Z,94.71
2019-01-14T14:59:51.376Z,95.30
2019-01-14T15:00:51.330Z,96.29
2019-01-14T15:01:51.322Z,96.71
2019-01-14T15:02:51.345Z,97.49
2019-01-14T15:03:51.300Z,97.39
2019-01-14T15:04:51.293Z,98.02
2019-01-14T15:05:51.280Z,97.97
2019-01-14T15:06:51.298Z,97.66
2019-01-14T15:07:51.257Z,98.44
2019-01-14T15:08:51.299Z,98.39
2019-01-14T15:09:55.797Z,98.75
2019-01-14T15:10:51.228Z,98.75
2019-01-14T15:11:51.215Z,98.65
2019-01-14T15:12:51.218Z,98.75
2019-01-14T15:13:51.189Z,99.02
2019-01-14T15:14:51.223Z,99.13
2019-01-14T15:15:51.166Z,99.07
2019-01-14T15:16:51.156Z,99.49
2019-01-14T15:17:51.148Z,99.07
2019-01-14T15:18:51.138Z,99.07
2019-01-14T15:19:51.123Z,98.82
2019-01-14T15:20:51.176Z,98.97
2019-01-14T15:21:51.099Z,99.28
2019-01-14T15:22:51.091Z,99.07
2019-01-14T15:23:51.087Z,99.07
2019-01-14T15:24:51.070Z,99.07
2019-01-14T15:25:51.106Z,99.18
2019-01-14T15:26:51.071Z,98.65
2019-01-14T15:27:51.037Z,98.75
2019-01-14T15:28:51.028Z,98.65
2019-01-14T15:29:51.017Z,99.49
2019-01-14T15:30:51.004Z,99.07
2019-01-14T15:31:51.038Z,99.33
2019-01-14T15:32:51.007Z,99.01
2019-01-14T15:33:50.990Z,99.54
2019-01-14T15:34:50.962Z,99.54